createdAt,value
2023-02-16T00:02:01.508Z,101956.19
2023-02-16T00:05:22.589Z,101959.34
2023-02-16T00:08:27.702Z,101951.16
2023-02-16T00:11:52.936Z,101955.34
2023-02-16T00:14:59.435Z,101944.47
2023-02-16T00:18:06.042Z,101942.75
2023-02-16T00:21:11.392Z,101941.03
2023-02-16T00:24:17.015Z,101938.59
2023-02-16T00:27:22.503Z,101946.69
2023-02-16T00:30:30.813Z,101943.72
2023-02-16T00:33:36.107Z,101942.06
2023-02-16T00:36:40.850Z,101942.88
2023-02-16T00:39:46.397Z,101928.72
2023-02-16T00:42:51.991Z,101932.34
2023-02-16T00:45:59.035Z,101927.53
2023-02-16T00:49:04.181Z,101921.69
2023-02-16T00:52:24.665Z,101927.53
2023-02-16T00:55:31.680Z,101918.38
2023-02-16T00:58:36.840Z,101923.25
2023-02-16T01:01:43.445Z,101914.16
2023-02-16T01:04:48.695Z,101919.22
2023-02-16T01:08:11.399Z,101912.44
2023-02-16T01:11:16.725Z,101903.88
2023-02-16T01:14:21.787Z,101904.06
2023-02-16T01:17:28.027Z,101905.56
2023-02-16T01:20:37.413Z,101901.47
2023-02-16T01:23:43.408Z,101898.22
2023-02-16T01:26:50.548Z,101894.78
2023-02-16T01:29:55.622Z,101883.03
2023-02-16T01:33:02.458Z,101892.53
2023-02-16T01:36:08.474Z,101878.00
2023-02-16T01:39:14.691Z,101882.22
2023-02-16T01:42:33.511Z,101889.06
2023-02-16T01:45:42.854Z,101873.22
2023-02-16T01:48:50.128Z,101868.19
2023-02-16T01:51:59.060Z,101861.06
2023-02-16T01:55:08.781Z,101861.31
2023-02-16T01:58:19.414Z,101855.44
2023-02-16T02:01:40.034Z,101857.25
2023-02-16T02:05:07.706Z,101842.88
2023-02-16T02:08:23.617Z,101830.94
2023-02-16T02:11:34.112Z,101836.16
2023-02-16T02:14:40.826Z,101829.34
2023-02-16T02:17:46.017Z,101831.78
2023-02-16T02:21:36.426Z,101833.59
2023-02-16T02:25:19.559Z,101813.25
2023-02-16T02:28:29.999Z,101825.84
2023-02-16T02:31:45.299Z,101818.47
2023-02-16T02:35:03.013Z,101811.75
2023-02-16T02:38:15.994Z,101803.38
2023-02-16T02:41:47.056Z,101803.41
2023-02-16T02:44:58.978Z,101794.06
2023-02-16T02:48:04.407Z,101792.28
2023-02-16T02:51:33.991Z,101793.59
2023-02-16T02:55:03.591Z,101778.03
2023-02-16T02:58:26.818Z,101780.47
2023-02-16T03:01:35.057Z,101777.31
2023-02-16T03:04:40.108Z,101767.00
2023-02-16T03:07:49.452Z,101765.53
2023-02-16T03:11:15.697Z,101763.38
2023-02-16T03:14:23.906Z,101753.50
2023-02-16T03:17:52.668Z,101745.16
2023-02-16T03:21:16.178Z,101760.00
2023-02-16T03:24:42.281Z,101748.53
2023-02-16T03:28:04.547Z,101765.91
2023-02-16T03:31:13.330Z,101759.63
2023-02-16T03:34:21.846Z,101746.13
2023-02-16T03:37:29.589Z,101747.78
2023-02-16T03:40:35.437Z,101751.19
2023-02-16T03:43:40.258Z,101747.00
2023-02-16T03:46:45.561Z,101740.41
2023-02-16T03:49:52.535Z,101737.59
2023-02-16T03:53:07.100Z,101733.56
2023-02-16T03:56:14.397Z,101732.63
2023-02-16T03:59:20.601Z,101724.22
2023-02-16T04:02:25.640Z,101721.72
2023-02-16T04:05:32.507Z,101710.72
2023-02-16T04:08:37.703Z,101715.88
2023-02-16T04:12:00.023Z,101707.41
2023-02-16T04:15:05.976Z,101700.63
2023-02-16T04:18:14.205Z,101705.47
2023-02-16T04:21:21.114Z,101713.28
2023-02-16T04:24:26.245Z,101700.78
2023-02-16T04:27:31.411Z,101702.38
2023-02-16T04:30:36.368Z,101686.59
2023-02-16T04:33:41.512Z,101684.06
2023-02-16T04:36:48.083Z,101678.06
2023-02-16T04:39:53.244Z,101661.28
2023-02-16T04:42:58.422Z,101677.88
2023-02-16T04:46:03.867Z,101678.97
2023-02-16T04:49:09.066Z,101680.69
2023-02-16T04:52:16.021Z,101682.38
2023-02-16T04:55:21.350Z,101673.16
2023-02-16T04:58:28.846Z,101674.88
2023-02-16T05:01:34.058Z,101688.44
2023-02-16T05:04:39.715Z,101675.59
2023-02-16T05:07:46.312Z,101675.56
2023-02-16T05:11:11.401Z,101674.06
2023-02-16T05:14:38.605Z,101667.25
2023-02-16T05:17:43.746Z,101666.50
2023-02-16T05:21:06.479Z,101667.09
2023-02-16T05:24:14.302Z,101656.31
2023-02-16T05:27:20.971Z,101651.19
2023-02-16T05:30:26.250Z,101650.38
2023-02-16T05:33:31.414Z,101643.97
2023-02-16T05:36:36.511Z,101651.44
2023-02-16T05:39:45.150Z,101647.50
2023-02-16T05:42:53.843Z,101641.63
2023-02-16T05:45:58.756Z,101644.19
2023-02-16T05:49:04.008Z,101637.28
2023-02-16T05:52:09.130Z,101633.03
2023-02-16T05:55:16.386Z,101635.66
2023-02-16T05:58:21.276Z,101628.91
2023-02-16T06:01:26.436Z,101628.13
2023-02-16T06:04:32.920Z,101609.66
2023-02-16T06:07:37.845Z,101618.09
2023-02-16T06:10:44.584Z,101623.00
2023-02-16T06:13:50.265Z,101602.97
2023-02-16T06:16:56.630Z,101598.88
2023-02-16T06:20:01.832Z,101586.16
2023-02-16T06:23:07.985Z,101596.94
2023-02-16T06:26:14.516Z,101586.25
2023-02-16T06:29:19.682Z,101581.94
2023-02-16T06:32:25.108Z,101583.66
2023-02-16T06:35:30.055Z,101592.88
2023-02-16T06:38:35.192Z,101589.59
2023-02-16T06:41:41.855Z,101598.53
2023-02-16T06:44:47.106Z,101601.97
2023-02-16T06:47:52.280Z,101597.03
2023-02-16T06:50:57.317Z,101595.44
2023-02-16T06:54:03.826Z,101603.06
2023-02-16T06:57:13.691Z,101606.44
2023-02-16T07:00:19.677Z,101609.72
2023-02-16T07:03:25.050Z,101606.44
2023-02-16T07:06:31.327Z,101607.09
2023-02-16T07:09:38.461Z,101601.38
2023-02-16T07:12:44.959Z,101606.41
2023-02-16T07:15:50.136Z,101596.38
2023-02-16T07:18:55.617Z,101598.06
2023-02-16T07:22:00.741Z,101601.53
2023-02-16T07:25:06.241Z,101591.53
2023-02-16T07:28:14.652Z,101589.84
2023-02-16T07:31:20.125Z,101595.66
2023-02-16T07:34:25.451Z,101585.66
2023-02-16T07:37:30.422Z,101573.88
2023-02-16T07:40:35.814Z,101577.94
2023-02-16T07:43:43.145Z,101587.38
2023-02-16T07:46:48.373Z,101591.72
2023-02-16T07:49:53.285Z,101583.38
2023-02-16T07:52:58.499Z,101575.75
2023-02-16T07:56:03.610Z,101582.41
2023-02-16T07:59:10.178Z,101571.47
2023-02-16T08:02:18.445Z,101572.50
2023-02-16T08:05:23.734Z,101565.09
2023-02-16T08:08:29.460Z,101577.38
2023-02-16T08:11:35.197Z,101561.72
2023-02-16T08:14:42.213Z,101559.31
2023-02-16T08:17:48.003Z,101551.69
2023-02-16T08:21:03.775Z,101561.00
2023-02-16T08:24:13.281Z,101544.34
2023-02-16T08:27:18.614Z,101557.81
2023-02-16T08:30:25.315Z,101545.19
2023-02-16T08:33:33.118Z,101548.63
2023-02-16T08:36:40.138Z,101552.06
2023-02-16T08:39:45.765Z,101548.56
2023-02-16T08:42:50.958Z,101542.56
2023-02-16T08:46:02.326Z,101549.50
2023-02-16T08:49:08.616Z,101539.28
2023-02-16T08:52:14.931Z,101541.91
2023-02-16T08:55:20.069Z,101541.81
2023-02-16T08:58:25.782Z,101536.72
2023-02-16T09:01:32.500Z,101528.50
2023-02-16T09:04:38.010Z,101535.44
2023-02-16T09:07:43.115Z,101530.22
2023-02-16T09:10:48.607Z,101521.16
2023-02-16T09:13:53.734Z,101515.53
2023-02-16T09:17:00.452Z,101504.78
2023-02-16T09:20:07.209Z,101499.97
2023-02-16T09:23:13.565Z,101500.84
2023-02-16T09:26:20.177Z,101494.13
2023-02-16T09:29:25.315Z,101483.16
2023-02-16T09:32:32.336Z,101493.31
2023-02-16T09:35:39.433Z,101489.84
2023-02-16T09:38:44.850Z,101484.78
2023-02-16T09:42:09.099Z,101491.47
2023-02-16T09:45:16.487Z,101488.16
2023-02-16T09:48:33.037Z,101488.97
2023-02-16T09:51:41.200Z,101477.13
2023-02-16T09:54:50.451Z,101483.88
2023-02-16T09:58:04.315Z,101474.63
2023-02-16T10:01:20.819Z,101462.84
2023-02-16T10:04:32.212Z,101456.94
2023-02-16T10:07:44.050Z,101467.09
2023-02-16T10:10:52.199Z,101466.22
2023-02-16T10:14:00.134Z,101464.53
2023-02-16T10:17:18.366Z,101451.03
2023-02-16T10:20:28.609Z,101455.34
2023-02-16T10:23:45.696Z,101457.13
2023-02-16T10:26:55.715Z,101455.38
2023-02-16T10:30:01.080Z,101454.59
2023-02-16T10:33:14.495Z,101436.88
2023-02-16T10:36:29.394Z,101443.69
2023-02-16T10:39:39.811Z,101440.31
2023-02-16T10:42:50.245Z,101440.28
2023-02-16T10:45:56.661Z,101434.28
2023-02-16T10:49:02.675Z,101429.28
2023-02-16T10:52:10.071Z,101426.84
2023-02-16T10:55:16.481Z,101420.19
2023-02-16T10:58:23.750Z,101410.94
2023-02-16T11:01:36.306Z,101421.03
2023-02-16T11:04:43.819Z,101415.94
2023-02-16T11:07:57.136Z,101414.34
2023-02-16T11:11:10.926Z,101416.03
2023-02-16T11:14:23.925Z,101414.34
2023-02-16T11:17:29.084Z,101415.94
2023-02-16T11:20:37.338Z,101405.06
2023-02-16T11:23:59.827Z,101405.13
2023-02-16T11:27:07.418Z,101405.94
2023-02-16T11:30:22.683Z,101407.66
2023-02-16T11:33:29.404Z,101416.88
2023-02-16T11:36:43.994Z,101403.41
2023-02-16T11:40:25.445Z,101399.25
2023-02-16T11:43:34.060Z,101404.28
2023-02-16T11:46:41.704Z,101394.97
2023-02-16T11:49:46.840Z,101405.06
2023-02-16T11:52:54.041Z,101413.53
2023-02-16T11:56:19.323Z,101408.47
2023-02-16T11:59:24.924Z,101403.44
2023-02-16T12:03:01.415Z,101401.78
2023-02-16T12:06:13.534Z,101394.16
2023-02-16T12:09:27.006Z,101389.16
2023-02-16T12:12:41.633Z,101396.75
2023-02-16T12:15:50.573Z,101390.84
2023-02-16T12:19:06.118Z,101395.84
2023-02-16T12:22:25.101Z,101388.28
2023-02-16T12:25:35.930Z,101391.63
2023-02-16T12:28:46.094Z,101381.53
2023-02-16T12:32:11.726Z,101390.88
2023-02-16T12:35:35.308Z,101387.47
2023-02-16T12:38:48.974Z,101383.25
2023-02-16T12:42:14.534Z,101379.09
2023-02-16T12:45:24.184Z,101379.94
2023-02-16T12:48:38.882Z,101375.72
2023-02-16T12:51:47.375Z,101369.78
2023-02-16T12:54:55.796Z,101368.13
2023-02-16T12:58:09.989Z,101357.13
2023-02-16T13:01:20.061Z,101364.72
2023-02-16T13:04:31.746Z,101351.19
2023-02-16T13:07:41.339Z,101357.13
2023-02-16T13:10:55.787Z,101336.88
2023-02-16T13:14:05.725Z,101352.03
2023-02-16T13:17:15.979Z,101357.97
2023-02-16T13:20:23.179Z,101354.56
2023-02-16T13:23:37.505Z,101350.34
2023-02-16T13:26:51.107Z,101348.69
2023-02-16T13:30:41.885Z,101354.56
2023-02-16T13:34:04.151Z,101346.16
2023-02-16T13:37:24.066Z,101354.56
2023-02-16T13:40:49.447Z,101352.91
2023-02-16T13:43:56.014Z,101353.75
2023-02-16T13:47:02.371Z,101354.59
2023-02-16T13:50:28.149Z,101343.63
2023-02-16T13:53:37.856Z,101346.16
2023-02-16T13:56:42.952Z,101341.94
2023-02-16T13:59:55.491Z,101346.16
2023-02-16T14:03:05.858Z,101341.09
2023-02-16T14:06:33.478Z,101342.81
2023-02-16T14:09:49.262Z,101337.72
2023-02-16T14:12:54.452Z,101329.28
2023-02-16T14:16:02.688Z,101336.03
2023-02-16T14:19:21.041Z,101324.19
2023-02-16T14:22:35.489Z,101339.41
2023-02-16T14:25:41.369Z,101330.97
2023-02-16T14:29:09.599Z,101321.69
2023-02-16T14:32:23.921Z,101325.03
2023-02-16T14:35:31.779Z,101337.69
2023-02-16T14:38:39.016Z,101330.94
2023-02-16T14:41:44.275Z,101326.72
2023-02-16T14:45:04.944Z,101328.44
2023-02-16T14:48:19.770Z,101327.56
2023-02-16T14:51:45.660Z,101327.56
2023-02-16T14:55:26.264Z,101339.41
2023-02-16T14:58:35.532Z,101326.72
2023-02-16T15:01:43.973Z,101317.44
2023-02-16T15:04:49.241Z,101327.56
2023-02-16T15:08:00.579Z,101332.63
2023-02-16T15:11:20.112Z,101318.28
2023-02-16T15:14:25.963Z,101319.13
2023-02-16T15:17:35.528Z,101318.28
2023-02-16T15:20:41.257Z,101318.28
2023-02-16T15:23:53.651Z,101316.59
2023-02-16T15:27:09.105Z,101311.53
2023-02-16T15:30:24.162Z,101314.06
2023-02-16T15:33:37.317Z,101311.53
2023-02-16T15:36:45.013Z,101321.66
2023-02-16T15:40:12.113Z,101310.66
2023-02-16T15:43:30.994Z,101316.59
2023-02-16T15:46:37.609Z,101316.56
2023-02-16T15:49:43.742Z,101315.75
2023-02-16T15:52:48.599Z,101318.25
2023-02-16T15:55:53.775Z,101313.16
2023-02-16T15:59:01.713Z,101300.53
2023-02-16T16:02:14.687Z,101314.00
2023-02-16T16:05:25.633Z,101308.09
2023-02-16T16:08:31.077Z,101305.56
2023-02-16T16:11:37.400Z,101308.13
2023-02-16T16:14:50.716Z,101312.34
2023-02-16T16:17:59.845Z,101303.03
2023-02-16T16:21:12.236Z,101299.69
2023-02-16T16:24:35.251Z,101305.56
2023-02-16T16:27:40.466Z,101306.44
2023-02-16T16:30:47.003Z,101308.13
2023-02-16T16:33:56.827Z,101299.69
2023-02-16T16:37:04.001Z,101292.91
2023-02-16T16:40:22.320Z,101292.94
2023-02-16T16:43:29.743Z,101286.16
2023-02-16T16:46:36.920Z,101288.72
2023-02-16T16:49:50.515Z,101276.88
2023-02-16T16:52:58.959Z,101292.91
2023-02-16T16:56:09.086Z,101285.31
2023-02-16T16:59:14.314Z,101276.03
2023-02-16T17:02:22.877Z,101281.94
2023-02-16T17:05:27.953Z,101278.56
2023-02-16T17:08:32.997Z,101282.78
2023-02-16T17:11:38.938Z,101292.09
2023-02-16T17:14:44.349Z,101286.16
2023-02-16T17:17:52.209Z,101281.09
2023-02-16T17:20:57.945Z,101281.13
2023-02-16T17:24:03.275Z,101271.84
2023-02-16T17:27:09.051Z,101281.13
2023-02-16T17:30:15.418Z,101281.13
2023-02-16T17:33:22.160Z,101270.13
2023-02-16T17:36:40.296Z,101273.53
2023-02-16T17:39:48.226Z,101276.88
2023-02-16T17:42:54.711Z,101274.34
2023-02-16T17:46:04.965Z,101260.00
2023-02-16T17:49:13.590Z,101262.53
2023-02-16T17:52:18.567Z,101270.09
2023-02-16T17:55:23.810Z,101256.63
2023-02-16T17:58:29.087Z,101257.44
2023-02-16T18:01:34.999Z,101259.16
2023-02-16T18:04:42.004Z,101254.09
2023-02-16T18:07:47.300Z,101263.38
2023-02-16T18:10:54.408Z,101260.00
2023-02-16T18:13:59.497Z,101259.16
2023-02-16T18:17:06.906Z,101253.22
2023-02-16T18:20:17.125Z,101251.56
2023-02-16T18:23:23.752Z,101258.31
2023-02-16T18:26:33.435Z,101238.91
2023-02-16T18:29:38.664Z,101234.66
2023-02-16T18:32:45.074Z,101248.19
2023-02-16T18:35:53.931Z,101250.69
2023-02-16T18:38:59.249Z,101249.88
2023-02-16T18:42:19.017Z,101252.38
2023-02-16T18:45:24.465Z,101245.63
2023-02-16T18:48:29.604Z,101248.16
2023-02-16T18:51:38.237Z,101249.03
2023-02-16T18:54:43.932Z,101246.47
2023-02-16T18:57:49.134Z,101247.34
2023-02-16T19:00:54.207Z,101237.19
2023-02-16T19:03:59.668Z,101238.91
2023-02-16T19:07:06.741Z,101235.53
2023-02-16T19:10:13.342Z,101247.31
2023-02-16T19:13:18.400Z,101238.88
2023-02-16T19:16:23.610Z,101247.31
2023-02-16T19:19:30.188Z,101243.13
2023-02-16T19:22:38.080Z,101250.69
2023-02-16T19:25:43.542Z,101254.09
2023-02-16T19:28:49.154Z,101241.44
2023-02-16T19:31:54.616Z,101247.31
2023-02-16T19:34:59.868Z,101245.63
2023-02-16T19:38:06.902Z,101249.84
2023-02-16T19:41:16.581Z,101248.16
2023-02-16T19:44:21.931Z,101245.63
2023-02-16T19:47:29.089Z,101233.81
2023-02-16T19:50:34.171Z,101224.56
2023-02-16T19:53:41.008Z,101224.56
2023-02-16T19:56:46.217Z,101228.75
2023-02-16T19:59:51.779Z,101224.53
2023-02-16T20:03:00.249Z,101226.22
2023-02-16T20:06:14.784Z,101233.84
2023-02-16T20:09:24.366Z,101224.53
2023-02-16T20:12:29.615Z,101222.84
2023-02-16T20:15:34.675Z,101229.59
2023-02-16T20:18:40.681Z,101206.81
2023-02-16T20:21:46.450Z,101211.03
2023-02-16T20:24:53.236Z,101216.09
2023-02-16T20:27:59.010Z,101207.66
2023-02-16T20:31:05.152Z,101214.41
2023-02-16T20:34:11.261Z,101206.00
2023-02-16T20:37:16.461Z,101203.44
2023-02-16T20:40:24.766Z,101205.13
2023-02-16T20:43:30.613Z,101202.59
2023-02-16T20:46:36.340Z,101200.06
2023-02-16T20:49:41.508Z,101205.91
2023-02-16T20:52:46.666Z,101210.13
2023-02-16T20:56:00.785Z,101208.41
2023-02-16T20:59:06.348Z,101206.66
2023-02-16T21:02:15.519Z,101200.75
2023-02-16T21:05:22.474Z,101202.41
2023-02-16T21:08:28.882Z,101211.66
2023-02-16T21:11:37.268Z,101215.03
2023-02-16T21:14:42.622Z,101202.38
2023-02-16T21:17:47.516Z,101206.53
2023-02-16T21:20:52.773Z,101205.66
2023-02-16T21:23:57.934Z,101209.00
2023-02-16T21:27:07.553Z,101206.44
2023-02-16T21:30:15.615Z,101199.81
2023-02-16T21:33:21.427Z,101198.03
2023-02-16T21:36:27.866Z,101194.72
2023-02-16T21:39:51.849Z,101202.25
2023-02-16T21:42:58.371Z,101194.66
2023-02-16T21:46:04.332Z,101188.00
2023-02-16T21:49:11.418Z,101179.50
2023-02-16T21:52:16.631Z,101165.22
2023-02-16T21:55:41.375Z,101177.94
2023-02-16T21:58:49.001Z,101177.13
2023-02-16T22:01:54.384Z,101177.97
2023-02-16T22:04:59.514Z,101174.63
2023-02-16T22:08:04.683Z,101162.84
2023-02-16T22:11:13.613Z,101162.00
2023-02-16T22:14:20.093Z,101166.19
2023-02-16T22:17:25.476Z,101166.19
2023-02-16T22:20:30.639Z,101165.38
2023-02-16T22:23:38.137Z,101169.59
2023-02-16T22:26:43.885Z,101173.81
2023-02-16T22:29:51.165Z,101161.16
2023-02-16T22:32:56.200Z,101149.31
2023-02-16T22:36:06.735Z,101149.31
2023-02-16T22:39:14.588Z,101160.19
2023-02-16T22:42:19.767Z,101155.06
2023-02-16T22:45:26.665Z,101151.72
2023-02-16T22:48:31.905Z,101160.13
2023-02-16T22:51:37.651Z,101143.22
2023-02-16T22:54:42.517Z,101149.00
2023-02-16T22:57:47.585Z,101148.19
2023-02-16T23:00:55.748Z,101141.38
2023-02-16T23:04:02.234Z,101135.47
2023-02-16T23:07:07.675Z,101130.47
2023-02-16T23:10:16.091Z,101133.78
2023-02-16T23:13:21.233Z,101134.59
2023-02-16T23:16:28.635Z,101128.69
2023-02-16T23:19:36.317Z,101122.72
2023-02-16T23:22:43.811Z,101115.97
2023-02-16T23:25:50.167Z,101110.88
2023-02-16T23:28:57.455Z,101115.91
2023-02-16T23:32:07.108Z,101104.19
2023-02-16T23:35:12.565Z,101112.56
2023-02-16T23:38:18.541Z,101119.28
2023-02-16T23:41:23.767Z,101106.63
2023-02-16T23:44:30.941Z,101106.72
2023-02-16T23:47:37.587Z,101110.09
2023-02-16T23:50:43.529Z,101099.13
2023-02-16T23:53:48.494Z,101108.44
2023-02-16T23:56:53.898Z,101107.59
2023-02-16T23:59:58.959Z,101093.28
